Ely, MN

7:30 AM CST on November 23, 2014 (GMT -0600)
Crane Lake | Change Station
CLOSE
Current Station
Airport
Location: Crane Lake,
Elevation: 1119 ft
Nearby Weather Stations

Elev 1119 ft 48.27 °N, 92.48 °W | Updated 19 minutes ago

Fog
Fog
30 °F
Feels Like 30 °F
N
0
Wind Variable Wind from North

Today
High -- | Low -- °F
--% Chance of Precip.
Yesterday
High -- | Low -- °F
Precip. -- in
7:25 AM 4:22 PM
New Moon, 1% visible
Pressure 29.42 in
Visibility 0.8 miles
Clouds Overcast 500 ft
Dew Point 30 °F
Humidity 100%
Rainfall 0.00 in
Snow Depth Not available.
UV 0 out of 12
Pollen .10 out of 12
Air Quality Not available.
Flu Activity Not available.
METAR KCDD 231311Z AUTO 00000KT 3/4SM BR OVC005 M01/M01 A2942 RMK AO2

More Conditions Fewer Conditions

Pressure 29.42 in
Visibility 0.8 miles
Clouds Overcast 500 ft
Dew Point 30 °F
Humidity 100%
Rainfall 0.00 in
Snow Depth Not available.
UV 0 out of 12
Pollen .10 out of 12
Air Quality Not available.
Flu Activity Not available.
METAR KCDD 231311Z AUTO 00000KT 3/4SM BR OVC005 M01/M01 A2942 RMK AO2

More Conditions Fewer Conditions

Nowcast | as of 5:57 am CST on November 23, 2014

Areas of fog and drizzle will continue this morning across far northern Minnesota including Bigfork...International Falls...Ely...Crane Lake and the North Shore. Temperatures in these areas ranged from 30 to 36. Slick spots will be likely on untreated roads. Be prepared for slower travel. The higher terrain of the North Shore will be more prone to some icing.

×

10-Day Weather Forecast

Almanac

Astronomy

Nov. 23, 2014 Rise Set
Actual Time
Civil Twilight
Nautical Twilight
Astronomical Twilight
Moon
Length of Visible Light
Length of Day
Tomorrow will be .
, % of the Moon is Illuminated

Today's Extremes

State Highs State Lows

Community

WunderPhotos

Upload Photos

1,773,057 photos uploaded!

WunderBlogs® & News

Nearby

Air Quality

  Air Quality AQ Index Pollutant
Not available.

Snow Depth

Station Depth Elevation

Earthquake Activity

City Distance Mag. Time & Date
Minimum magnitude displayed is 2.5.

Coastal Water Temperatures

Place Temperature

Nearby Weather Stations